Time;durP1;ratioP1;P1;durP2;ratioP2;P2;SDS_P1;SDS_P2;PMS_P1;PMS_P2;Temp;Humidity;BMP_temperature;BMP_pressure;BME280_temperature;BME280_humidity;BME280_pressure;Samples;Min_cycle;Max_cycle;Signal;HPM_P1;HPM_P2
2022/09/04 00:01:13;;;;;;;4.23;2.47;;;17.80;70.80;;;;;;5053759;28;20545;-74
2022/09/04 00:03:50;;;;;;;3.60;2.40;;;17.70;70.90;;;;;;5053791;28;20483;-75
2022/09/04 00:06:22;;;;;;;2.63;2.13;;;17.60;71.00;;;;;;5053746;28;20469;-75
2022/09/04 00:09:07;;;;;;;3.67;2.23;;;17.60;71.10;;;;;;5053543;28;20545;-75
2022/09/04 00:11:48;;;;;;;3.30;2.30;;;17.60;71.30;;;;;;5052197;28;20533;-75
2022/09/04 00:14:20;;;;;;;5.30;2.60;;;17.50;71.30;;;;;;5053445;28;20429;-75
2022/09/04 00:16:54;;;;;;;2.70;2.20;;;17.50;71.40;;;;;;5053648;28;20426;-75
2022/09/04 00:19:31;;;;;;;6.83;2.10;;;17.50;71.50;;;;;;5051979;28;20475;-75
2022/09/04 00:22:01;;;;;;;4.33;2.10;;;17.40;71.50;;;;;;5053378;28;20461;-75
2022/09/04 00:24:36;;;;;;;4.30;2.60;;;17.40;71.70;;;;;;5053928;28;20768;-75
2022/09/04 00:27:10;;;;;;;3.40;2.83;;;17.40;71.80;;;;;;5051919;28;20994;-75
2022/09/04 00:29:50;;;;;;;3.80;2.43;;;17.30;71.80;;;;;;5053363;28;20544;-75
2022/09/04 00:32:24;;;;;;;5.70;2.23;;;17.30;71.90;;;;;;5052068;28;20438;-75
2022/09/04 00:35:04;;;;;;;4.80;2.73;;;17.30;72.00;;;;;;5053479;28;20389;-75
2022/09/04 00:37:36;;;;;;;5.70;2.90;;;17.20;72.10;;;;;;5052163;28;20442;-75
2022/09/04 00:40:10;;;;;;;2.40;2.00;;;17.20;72.20;;;;;;5053299;28;20428;-75
2022/09/04 00:43:00;;;;;;;3.87;2.47;;;17.20;72.40;;;;;;5051778;28;20413;-75
2022/09/04 00:45:40;;;;;;;3.00;2.40;;;17.10;72.40;;;;;;5053266;28;20458;-75
2022/09/04 00:48:46;;;;;;;2.90;2.30;;;17.10;72.50;;;;;;5051795;28;20479;-75
2022/09/04 00:51:32;;;;;;;2.90;2.20;;;17.10;72.70;;;;;;5004789;28;20958;-75
2022/09/04 00:54:21;;;;;;;3.33;2.20;;;17.00;72.70;;;;;;5055796;28;20446;-75
2022/09/04 00:57:20;;;;;;;2.90;2.20;;;17.00;72.80;;;;;;5055683;28;20926;-75
2022/09/04 01:00:06;;;;;;;5.40;2.03;;;17.00;72.90;;;;;;5056850;28;21006;-75
2022/09/04 01:02:57;;;;;;;3.17;2.17;;;16.90;72.90;;;;;;5055764;28;20504;-75
2022/09/04 01:05:38;;;;;;;3.30;2.33;;;16.90;73.00;;;;;;5056804;28;20565;-75
2022/09/04 01:08:15;;;;;;;3.17;2.20;;;16.90;73.10;;;;;;5057158;28;20389;-75
2022/09/04 01:10:53;;;;;;;3.60;2.37;;;16.80;73.10;;;;;;5056942;28;20432;-75
2022/09/04 01:13:35;;;;;;;2.80;2.23;;;16.80;73.20;;;;;;5056719;28;20389;-75
2022/09/04 01:16:09;;;;;;;2.63;2.10;;;16.80;74.00;;;;;;5056971;28;20392;-75
2022/09/04 01:18:45;;;;;;;3.70;2.53;;;16.80;73.40;;;;;;5055634;28;20409;-75
2022/09/04 01:21:29;;;;;;;2.60;2.17;;;16.70;73.50;;;;;;5056850;28;20453;-75
2022/09/04 01:24:25;;;;;;;3.50;1.97;;;16.70;73.50;;;;;;5056907;28;20418;-75
2022/09/04 01:27:02;;;;;;;3.03;2.30;;;16.70;74.30;;;;;;5051990;28;20440;-75
2022/09/04 01:29:41;;;;;;;2.90;1.87;;;16.70;74.40;;;;;;5055290;28;20440;-75
2022/09/04 01:32:18;;;;;;;3.97;2.20;;;16.60;73.80;;;;;;5056468;28;20415;-75
2022/09/04 01:34:58;;;;;;;4.50;2.10;;;16.60;73.90;;;;;;5056860;28;20425;-75
2022/09/04 01:37:40;;;;;;;3.10;2.10;;;16.60;74.00;;;;;;5056578;28;20397;-75
2022/09/04 01:40:24;;;;;;;2.50;2.00;;;16.60;74.10;;;;;;5056580;28;20507;-75
2022/09/04 01:43:09;;;;;;;2.80;1.77;;;16.50;74.10;;;;;;5056407;28;20504;-75
2022/09/04 01:45:53;;;;;;;4.40;2.30;;;16.50;74.20;;;;;;5056244;28;20797;-75
2022/09/04 01:48:32;;;;;;;3.60;2.10;;;16.50;74.30;;;;;;5056046;28;20404;-75
2022/09/04 01:51:12;;;;;;;3.97;2.30;;;16.50;74.40;;;;;;5054656;28;20533;-75
2022/09/04 01:53:46;;;;;;;3.17;2.30;;;16.40;74.40;;;;;;5054693;28;20438;-75
2022/09/04 01:56:21;;;;;;;4.00;2.00;;;16.40;74.50;;;;;;5055882;28;21009;-75
2022/09/04 01:58:56;;;;;;;3.40;2.50;;;16.40;74.70;;;;;;5056458;28;20422;-75
2022/09/04 02:01:37;;;;;;;3.27;2.70;;;16.40;74.80;;;;;;5055778;28;20392;-75
2022/09/04 02:04:19;;;;;;;2.80;2.10;;;16.40;74.90;;;;;;5054574;28;20448;-75
2022/09/04 02:06:53;;;;;;;3.70;2.33;;;16.30;74.90;;;;;;5055967;28;20442;-75
2022/09/04 02:09:31;;;;;;;2.63;2.13;;;16.30;75.60;;;;;;5055506;28;20490;-75
2022/09/04 02:12:09;;;;;;;4.73;2.23;;;16.30;75.10;;;;;;5054451;28;20412;-75
2022/09/04 02:14:48;;;;;;;3.77;2.33;;;16.30;75.20;;;;;;5054649;28;20798;-75
2022/09/04 02:17:20;;;;;;;4.97;2.57;;;16.20;75.10;;;;;;5054231;28;20907;-75
2022/09/04 02:20:09;;;;;;;4.87;2.40;;;16.20;75.20;;;;;;5054086;28;21020;-75
2022/09/04 02:22:45;;;;;;;3.17;2.30;;;16.20;75.30;;;;;;5054117;28;20471;-75
2022/09/04 02:25:22;;;;;;;3.17;2.20;;;16.20;75.40;;;;;;5055958;28;20857;-75
2022/09/04 02:28:05;;;;;;;3.83;2.57;;;16.10;75.40;;;;;;5055588;28;20432;-75
2022/09/04 02:30:42;;;;;;;3.23;2.47;;;16.10;75.50;;;;;;5055432;28;20464;-75
2022/09/04 02:33:19;;;;;;;2.73;2.00;;;16.10;75.60;;;;;;5055469;28;20425;-75
2022/09/04 02:35:53;;;;;;;4.80;2.53;;;16.10;75.70;;;;;;5054308;28;20427;-75
2022/09/04 02:38:30;;;;;;;4.37;2.43;;;16.00;75.70;;;;;;5055353;28;20438;-75
2022/09/04 02:41:05;;;;;;;3.73;2.60;;;16.00;75.80;;;;;;5053748;28;20448;-75
2022/09/04 02:43:50;;;;;;;2.97;2.10;;;16.00;75.90;;;;;;5053772;28;20441;-75
2022/09/04 02:46:28;;;;;;;6.23;2.63;;;16.00;76.10;;;;;;5053721;28;20437;-75
2022/09/04 02:49:07;;;;;;;2.50;2.30;;;16.00;76.20;;;;;;5054007;28;20430;-75
2022/09/04 02:52:00;;;;;;;2.50;2.10;;;15.90;76.20;;;;;;5055656;28;20461;-74
2022/09/04 02:54:51;;;;;;;3.77;2.70;;;15.90;76.30;;;;;;5055769;28;20844;-75
2022/09/04 02:57:28;;;;;;;3.50;2.63;;;15.90;76.40;;;;;;5055542;28;20419;-75
2022/09/04 03:00:06;;;;;;;3.10;2.60;;;15.80;76.50;;;;;;5054976;28;20518;-75
2022/09/04 03:02:41;;;;;;;3.57;2.53;;;15.80;76.50;;;;;;5055431;28;20429;-75
2022/09/04 03:05:18;;;;;;;4.00;2.50;;;15.80;76.60;;;;;;5055007;28;20400;-75
2022/09/04 03:07:53;;;;;;;2.97;2.53;;;15.80;76.70;;;;;;5053351;28;20470;-75
2022/09/04 03:10:29;;;;;;;4.67;2.20;;;15.80;76.80;;;;;;5054805;28;20463;-75
2022/09/04 03:13:05;;;;;;;5.70;2.47;;;15.70;76.80;;;;;;5054061;28;20393;-75
2022/09/04 03:15:40;;;;;;;3.43;2.90;;;15.70;77.00;;;;;;5053215;28;20861;-75
2022/09/04 03:18:19;;;;;;;5.30;2.63;;;15.70;77.10;;;;;;5054696;28;20410;-75
2022/09/04 03:20:54;;;;;;;2.77;2.20;;;15.60;77.10;;;;;;5054310;28;20846;-75
2022/09/04 03:23:32;;;;;;;2.60;2.20;;;15.60;77.10;;;;;;5054546;28;20404;-75
2022/09/04 03:26:17;;;;;;;3.07;2.40;;;15.60;77.20;;;;;;5053020;28;20496;-75
2022/09/04 03:29:00;;;;;;;3.37;2.50;;;15.60;77.40;;;;;;5054510;28;20525;-75
2022/09/04 03:31:40;;;;;;;3.00;2.50;;;15.60;77.50;;;;;;5054394;28;20452;-75
2022/09/04 03:34:20;;;;;;;3.37;2.33;;;15.50;77.50;;;;;;5054161;28;20492;-75
2022/09/04 03:37:13;;;;;;;4.87;2.50;;;15.50;77.60;;;;;;5054580;28;20389;-75
2022/09/04 03:39:53;;;;;;;4.07;2.33;;;15.50;77.70;;;;;;5052519;28;20586;-74
2022/09/04 03:42:30;;;;;;;3.33;2.67;;;15.40;77.70;;;;;;5054259;28;20477;-75
2022/09/04 03:45:12;;;;;;;7.10;2.80;;;15.40;77.90;;;;;;5054191;28;20397;-75
2022/09/04 03:47:48;;;;;;;3.70;2.40;;;15.40;78.00;;;;;;5053716;28;20544;-75
2022/09/04 03:50:26;;;;;;;3.27;2.90;;;15.30;78.00;;;;;;5053712;28;20453;-75
2022/09/04 03:53:08;;;;;;;3.87;2.63;;;15.30;78.10;;;;;;5053078;28;20452;-75
2022/09/04 03:56:13;;;;;;;2.60;2.30;;;15.30;78.30;;;;;;5054301;28;20414;-75
2022/09/04 03:58:49;;;;;;;3.70;2.50;;;15.30;78.40;;;;;;5053924;28;20767;-75
2022/09/04 04:01:25;;;;;;;4.13;2.57;;;15.30;78.40;;;;;;5052608;28;20928;-75
2022/09/04 04:04:20;;;;;;;3.10;2.23;;;15.20;78.40;;;;;;5053847;28;20891;-75
2022/09/04 04:06:57;;;;;;;3.90;2.87;;;15.20;78.50;;;;;;5052078;28;20425;-74
2022/09/04 04:09:44;;;;;;;3.10;2.67;;;15.20;78.60;;;;;;5053624;28;20805;-75
2022/09/04 04:12:26;;;;;;;3.07;2.77;;;15.10;79.40;;;;;;5053444;28;20418;-75
2022/09/04 04:15:04;;;;;;;3.80;3.07;;;15.10;78.80;;;;;;5052142;28;20474;-75
2022/09/04 04:17:48;;;;;;;3.20;2.90;;;15.10;79.60;;;;;;5053735;28;20476;-75
2022/09/04 04:20:33;;;;;;;4.20;2.63;;;15.00;79.00;;;;;;5053425;28;20933;-75
2022/09/04 04:23:34;;;;;;;3.33;2.90;;;15.00;79.20;;;;;;5053307;28;20517;-75
2022/09/04 04:26:09;;;;;;;3.87;3.30;;;14.90;79.20;;;;;;5047993;28;20453;-75
2022/09/04 04:29:07;;;;;;;3.77;3.37;;;14.90;79.40;;;;;;5053288;28;20458;-75
2022/09/04 04:32:09;;;;;;;5.07;3.80;;;14.90;79.50;;;;;;5053874;28;20819;-75
2022/09/04 04:34:49;;;;;;;3.57;2.70;;;14.90;79.50;;;;;;5053089;28;20442;-75
2022/09/04 04:37:25;;;;;;;3.40;2.67;;;14.80;79.50;;;;;;5053167;28;20428;-75
2022/09/04 04:40:02;;;;;;;2.80;2.50;;;14.80;79.60;;;;;;5052144;28;20493;-75
2022/09/04 04:42:42;;;;;;;3.80;2.77;;;14.80;79.70;;;;;;5053224;28;20505;-75
2022/09/04 04:48:59;;;;;;;3.73;3.20;;;14.80;79.90;;;;;;5052028;28;20486;-75
2022/09/04 04:51:55;;;;;;;3.73;3.07;;;14.80;80.00;;;;;;5052009;28;20841;-75
2022/09/04 04:54:41;;;;;;;3.67;2.87;;;14.80;80.10;;;;;;5051820;28;20835;-74
2022/09/04 04:57:24;;;;;;;3.53;2.70;;;14.80;80.10;;;;;;5051753;28;20994;-75
2022/09/04 05:00:06;;;;;;;3.20;2.83;;;14.80;80.80;;;;;;5053171;28;20462;-75
2022/09/04 05:02:41;;;;;;;5.57;2.77;;;14.80;80.30;;;;;;5053376;28;20426;-75
2022/09/04 05:05:17;;;;;;;4.20;2.80;;;14.80;80.40;;;;;;5051688;28;20437;-75
2022/09/04 05:07:53;;;;;;;3.80;2.87;;;14.80;80.50;;;;;;5053178;28;20442;-74
2022/09/04 05:10:29;;;;;;;3.93;2.90;;;14.80;80.70;;;;;;5051643;28;20462;-75
2022/09/04 05:13:11;;;;;;;6.53;3.13;;;14.80;80.80;;;;;;5053643;28;20444;-75
2022/09/04 05:15:47;;;;;;;4.03;3.50;;;14.80;80.90;;;;;;5053249;28;20451;-75
2022/09/04 05:18:44;;;;;;;4.40;2.60;;;14.80;80.90;;;;;;5052058;28;20442;-75
2022/09/04 05:21:19;;;;;;;4.27;2.97;;;14.80;81.00;;;;;;5051922;28;20979;-75
2022/09/04 05:23:56;;;;;;;4.17;3.77;;;14.80;81.10;;;;;;5051563;28;20500;-75
2022/09/04 05:26:33;;;;;;;3.50;3.20;;;14.80;81.20;;;;;;5051536;28;20450;-75
2022/09/04 05:29:10;;;;;;;7.23;3.93;;;14.80;81.20;;;;;;5051665;28;20432;-75
2022/09/04 05:31:48;;;;;;;3.43;3.10;;;14.90;81.40;;;;;;5052761;28;20430;-74
2022/09/04 05:34:26;;;;;;;3.97;3.20;;;14.90;81.40;;;;;;5051429;28;20420;-75
2022/09/04 05:37:08;;;;;;;5.03;2.50;;;14.90;81.50;;;;;;5052985;28;20488;-75
2022/09/04 05:39:47;;;;;;;4.03;3.47;;;14.90;81.50;;;;;;5055165;28;20473;-75
2022/09/04 05:42:41;;;;;;;4.87;3.50;;;14.90;81.60;;;;;;5056543;28;20454;-75
2022/09/04 05:45:20;;;;;;;3.87;3.50;;;14.90;81.70;;;;;;5055181;28;20468;-74
2022/09/04 05:47:59;;;;;;;3.87;3.40;;;14.90;81.70;;;;;;5056134;28;20457;-75
2022/09/04 05:50:46;;;;;;;4.03;2.63;;;14.90;81.70;;;;;;5054888;28;20451;-76
2022/09/04 05:53:51;;;;;;;3.90;3.50;;;14.90;81.80;;;;;;5055012;28;20442;-75
2022/09/04 05:56:34;;;;;;;3.80;3.03;;;14.90;81.90;;;;;;5055967;28;20385;-74
2022/09/04 05:59:24;;;;;;;4.40;3.33;;;14.90;81.90;;;;;;5054793;28;20438;-74
2022/09/04 06:02:10;;;;;;;5.47;3.20;;;14.90;82.10;;;;;;5054720;28;20438;-75
2022/09/04 06:05:06;;;;;;;3.47;3.07;;;15.00;82.30;;;;;;5056446;28;20430;-75
2022/09/04 06:07:41;;;;;;;3.43;3.13;;;15.00;82.40;;;;;;5054867;28;20962;-75
2022/09/04 06:10:16;;;;;;;4.77;3.40;;;15.10;82.50;;;;;;5056063;28;20582;-75
2022/09/04 06:13:23;;;;;;;5.43;3.10;;;15.20;82.60;;;;;;5054948;28;20467;-75
2022/09/04 06:16:05;;;;;;;6.30;3.33;;;15.40;82.80;;;;;;5054892;28;20527;-75
2022/09/04 06:18:51;;;;;;;4.80;3.00;;;15.60;82.80;;;;;;5055635;28;20393;-75
2022/09/04 06:21:50;;;;;;;4.10;2.90;;;15.80;82.90;;;;;;5054256;28;20953;-75
2022/09/04 06:24:32;;;;;;;5.53;4.87;;;16.10;83.10;;;;;;5055692;28;20491;-75
2022/09/04 06:27:21;;;;;;;3.50;3.20;;;16.30;83.00;;;;;;5054128;28;20420;-75
2022/09/04 06:30:03;;;;;;;5.83;4.83;;;16.50;83.00;;;;;;5053971;28;20529;-76
2022/09/04 06:32:49;;;;;;;3.70;3.30;;;16.80;82.90;;;;;;5054007;28;20420;-75
2022/09/04 06:35:31;;;;;;;8.00;7.00;;;16.90;82.50;;;;;;5056307;28;20480;-74
2022/09/04 06:38:31;;;;;;;5.63;4.60;;;17.10;82.40;;;;;;5054351;28;20422;-75
2022/09/04 06:41:16;;;;;;;4.53;3.37;;;17.20;82.20;;;;;;5050948;28;20837;-75
2022/09/04 06:43:55;;;;;;;4.00;3.50;;;17.40;82.20;;;;;;5053913;28;20828;-75
2022/09/04 06:46:31;;;;;;;4.80;3.90;;;17.60;82.10;;;;;;5053824;28;20469;-75
2022/09/04 06:49:09;;;;;;;3.97;3.57;;;17.80;82.00;;;;;;5054336;28;20424;-75
2022/09/04 06:51:58;;;;;;;3.80;3.40;;;18.00;81.90;;;;;;5053716;28;20441;-75
2022/09/04 06:54:42;;;;;;;3.97;3.27;;;18.10;81.70;;;;;;5055004;28;20474;-76
2022/09/04 06:57:29;;;;;;;4.30;3.60;;;18.30;81.70;;;;;;5055181;28;20435;-75
2022/09/04 07:04:28;;;;;;;4.43;4.03;;;18.50;81.20;;;;;;5055019;28;20531;-76
2022/09/04 07:07:09;;;;;;;4.57;4.00;;;18.60;81.20;;;;;;5053550;28;20438;-76
2022/09/04 07:09:42;;;;;;;5.97;3.77;;;18.70;81.00;;;;;;5054570;28;20489;-75
2022/09/04 07:12:28;;;;;;;5.20;3.90;;;18.80;80.80;;;;;;5053415;28;20438;-77
2022/09/04 07:15:41;;;;;;;4.20;3.63;;;18.90;80.60;;;;;;5054601;28;20429;-76
2022/09/04 07:18:23;;;;;;;13.00;11.77;;;19.00;80.60;;;;;;5053184;28;20504;-76
2022/09/04 07:21:03;;;;;;;11.07;8.27;;;19.10;80.60;;;;;;5053255;28;20470;-75
2022/09/04 07:23:45;;;;;;;5.20;4.53;;;19.20;80.70;;;;;;5053224;28;20442;-75
2022/09/04 07:26:58;;;;;;;5.53;4.57;;;19.20;80.40;;;;;;5053232;28;20448;-76
2022/09/04 07:29:33;;;;;;;5.13;4.63;;;19.20;80.30;;;;;;5054469;28;20504;-75
2022/09/04 07:32:08;;;;;;;6.60;4.17;;;19.30;80.40;;;;;;5053120;28;20442;-76
2022/09/04 07:34:43;;;;;;;4.17;3.70;;;19.30;80.20;;;;;;5054600;28;20432;-75
2022/09/04 07:37:26;;;;;;;6.93;4.27;;;19.40;80.20;;;;;;5054440;28;20422;-75
2022/09/04 07:40:06;;;;;;;4.60;4.10;;;19.40;80.20;;;;;;5052944;28;20466;-76
2022/09/04 07:42:42;;;;;;;5.80;3.90;;;19.50;80.20;;;;;;5053425;28;20440;-76
2022/09/04 07:45:22;;;;;;;7.33;4.20;;;19.60;80.10;;;;;;5055435;28;20461;-76
2022/09/04 07:47:59;;;;;;;5.77;4.20;;;19.60;79.90;;;;;;5053590;28;20491;-76
2022/09/04 07:50:35;;;;;;;5.23;4.70;;;19.70;79.80;;;;;;5052850;28;20859;-76
2022/09/04 07:53:19;;;;;;;9.87;6.50;;;19.80;79.90;;;;;;5052946;28;20433;-76
2022/09/04 07:55:52;;;;;;;4.93;4.13;;;19.90;80.00;;;;;;5054147;28;20433;-75
2022/09/04 07:59:02;;;;;;;6.67;4.60;;;20.00;79.90;;;;;;5053826;28;20440;-75
2022/09/04 08:01:48;;;;;;;5.20;4.17;;;20.10;79.70;;;;;;4973168;28;20537;-76
2022/09/04 08:04:53;;;;;;;6.53;4.10;;;20.20;79.70;;;;;;4973429;28;20452;-75
2022/09/04 08:07:47;;;;;;;8.13;5.33;;;20.30;79.60;;;;;;5024856;28;20536;-76
2022/09/04 08:10:30;;;;;;;6.73;4.90;;;20.40;79.60;;;;;;5052202;28;20535;-76
2022/09/04 08:13:34;;;;;;;5.77;4.73;;;20.50;79.80;;;;;;5052394;28;20449;-76
2022/09/04 08:16:07;;;;;;;8.03;5.40;;;20.60;79.90;;;;;;5053782;28;20483;-75
2022/09/04 08:18:52;;;;;;;9.40;6.50;;;20.60;79.90;;;;;;5052243;28;20924;-76
2022/09/04 08:21:27;;;;;;;6.73;5.93;;;20.80;80.10;;;;;;5054197;28;20430;-76
2022/09/04 08:24:25;;;;;;;10.30;7.00;;;20.90;79.90;;;;;;5054549;28;20457;-78
2022/09/04 08:27:05;;;;;;;7.37;5.87;;;21.00;79.70;;;;;;5055917;28;20438;-77
2022/09/04 08:29:49;;;;;;;7.63;6.93;;;21.00;79.80;;;;;;5053426;28;20486;-77
2022/09/04 08:32:43;;;;;;;8.57;6.77;;;21.10;79.80;;;;;;5054269;28;20425;-77
2022/09/04 08:35:22;;;;;;;10.90;8.03;;;21.20;79.80;;;;;;5055168;28;20487;-77
2022/09/04 08:38:19;;;;;;;8.90;5.27;;;21.30;79.80;;;;;;5054504;28;20421;-77
2022/09/04 08:41:21;;;;;;;8.30;5.57;;;21.30;79.50;;;;;;5055981;28;20849;-78
2022/09/04 08:44:27;;;;;;;6.17;5.57;;;21.40;79.60;;;;;;5055053;28;20417;-77
2022/09/04 08:47:31;;;;;;;8.30;6.43;;;21.50;79.60;;;;;;5055640;28;20417;-78
2022/09/04 08:50:38;;;;;;;9.50;6.80;;;21.60;79.70;;;;;;5054550;28;20509;-77
2022/09/04 08:53:38;;;;;;;7.60;6.23;;;21.70;79.80;;;;;;5054109;28;20485;-78
2022/09/04 08:56:23;;;;;;;6.87;5.53;;;21.80;79.70;;;;;;5053412;28;20459;-78
2022/09/04 08:59:41;;;;;;;8.53;5.87;;;21.90;79.50;;;;;;5054123;28;20446;-77
2022/09/04 09:03:00;;;;;;;9.13;6.47;;;21.90;79.50;;;;;;4959123;28;20485;-78
2022/09/04 09:06:15;;;;;;;7.30;4.90;;;22.10;79.80;;;;;;5053536;28;20457;-77
2022/09/04 09:09:25;;;;;;;5.93;4.80;;;22.10;79.40;;;;;;5053575;28;20454;-78
2022/09/04 09:12:24;;;;;;;6.30;5.07;;;22.20;79.30;;;;;;5057096;28;20540;-77
2022/09/04 09:15:28;;;;;;;6.17;5.10;;;22.20;79.00;;;;;;5058923;28;20418;-77
2022/09/04 09:18:08;;;;;;;5.73;4.60;;;22.20;79.00;;;;;;5058762;28;20450;-78
2022/09/04 09:20:46;;;;;;;6.17;4.60;;;22.30;79.30;;;;;;5057722;28;20461;-77
2022/09/04 09:23:19;;;;;;;9.30;5.17;;;22.40;79.10;;;;;;5057191;28;20437;-78
2022/09/04 09:26:08;;;;;;;6.30;4.30;;;22.40;79.10;;;;;;5057071;28;20450;-77
2022/09/04 09:29:15;;;;;;;5.07;4.27;;;22.50;79.00;;;;;;5057269;28;20851;-78
2022/09/04 09:32:44;;;;;;;5.47;4.73;;;22.60;78.90;;;;;;5064572;28;20476;-78
2022/09/04 09:35:57;;;;;;;6.03;4.87;;;22.70;78.70;;;;;;5018044;28;20454;-78
2022/09/04 09:38:47;;;;;;;4.13;3.73;;;22.80;78.70;;;;;;5061111;28;20492;-78
2022/09/04 09:41:58;;;;;;;6.63;4.50;;;22.90;78.60;;;;;;5063034;28;20505;-78
2022/09/04 09:45:03;;;;;;;5.03;4.47;;;23.00;78.50;;;;;;5057143;28;20506;-78
2022/09/04 09:48:04;;;;;;;5.67;4.73;;;23.00;78.40;;;;;;5056537;28;20442;-78
2022/09/04 09:51:11;;;;;;;4.80;4.30;;;23.10;78.20;;;;;;5057006;28;20966;-78
2022/09/04 09:54:17;;;;;;;6.87;4.30;;;23.20;78.00;;;;;;5056697;28;20491;-78
2022/09/04 09:57:27;;;;;;;6.60;4.60;;;23.20;77.80;;;;;;5056691;28;20445;-78
2022/09/04 10:00:16;;;;;;;5.20;4.20;;;23.30;78.00;;;;;;5051292;28;20469;-78
2022/09/04 10:03:37;;;;;;;6.33;5.33;;;23.30;78.00;;;;;;5059140;28;20449;-78
2022/09/04 10:06:43;;;;;;;5.17;4.67;;;23.50;78.20;;;;;;5036131;28;20472;-76
2022/09/04 10:09:46;;;;;;;5.93;4.90;;;23.50;77.60;;;;;;5034417;28;20463;-75
2022/09/04 10:12:59;;;;;;;5.10;4.60;;;23.50;77.30;;;;;;5036935;28;20533;-75
2022/09/04 10:16:08;;;;;;;6.43;4.30;;;23.60;77.10;;;;;;5035635;28;20454;-75
2022/09/04 10:19:21;;;;;;;6.70;4.57;;;23.60;76.90;;;;;;4999725;28;20455;-79
2022/09/04 10:22:22;;;;;;;4.43;4.03;;;23.60;77.10;;;;;;5036613;28;20447;-78
2022/09/04 10:25:17;;;;;;;7.57;4.57;;;23.60;77.00;;;;;;5043928;28;20427;-78
2022/09/04 10:28:30;;;;;;;4.50;4.10;;;23.70;77.00;;;;;;5036966;28;20455;-78
2022/09/04 10:31:35;;;;;;;5.70;3.87;;;23.70;77.00;;;;;;5025878;28;20481;-78
2022/09/04 10:34:29;;;;;;;4.40;4.00;;;23.80;77.40;;;;;;5056582;28;20466;-78
2022/09/04 10:37:11;;;;;;;6.23;4.70;;;23.90;77.60;;;;;;5057482;28;20492;-79
2022/09/04 10:42:49;;;;;;;7.10;4.80;;;24.00;77.20;;;;;;5057040;28;20445;-79
2022/09/04 10:45:25;;;;;;;5.40;4.43;;;24.10;76.80;;;;;;5057223;28;20442;-78
2022/09/04 10:48:39;;;;;;;5.00;3.90;;;24.10;76.60;;;;;;5058434;28;20776;-78
2022/09/04 10:51:26;;;;;;;4.40;4.00;;;24.10;76.40;;;;;;5059073;28;20496;-79
2022/09/04 10:54:32;;;;;;;5.57;4.70;;;24.20;76.40;;;;;;5056975;28;20435;-79
2022/09/04 10:57:17;;;;;;;7.10;4.70;;;24.20;76.30;;;;;;5055707;28;20453;-75
2022/09/04 11:03:42;;;;;;;5.63;4.77;;;24.30;76.60;;;;;;5053969;28;20572;-76
2022/09/04 11:06:42;;;;;;;5.80;4.60;;;24.40;76.50;;;;;;5054427;28;20522;-76
2022/09/04 11:24:22;;;;;;;6.53;5.00;;;24.50;75.80;;;;;;5054233;28;20539;-76
2022/09/04 11:27:19;;;;;;;4.80;4.27;;;24.60;76.40;;;;;;5035303;28;20469;-74
2022/09/04 11:29:58;;;;;;;5.10;3.60;;;24.70;76.10;;;;;;5049207;28;20462;-75
2022/09/04 11:32:51;;;;;;;4.70;4.00;;;24.70;75.90;;;;;;5050654;28;20485;-75
2022/09/04 11:36:04;;;;;;;5.57;4.10;;;24.80;75.90;;;;;;5049175;28;20444;-77
2022/09/04 11:39:05;;;;;;;4.27;3.87;;;24.90;75.90;;;;;;5050668;28;20505;-76
2022/09/04 11:42:19;;;;;;;5.10;4.30;;;25.00;75.80;;;;;;5049174;28;20510;-75
2022/09/04 11:45:20;;;;;;;5.40;4.13;;;25.10;75.60;;;;;;5015666;28;20885;-74
2022/09/04 11:48:18;;;;;;;6.90;4.60;;;25.10;74.90;;;;;;5046132;28;20936;-74
2022/09/04 11:51:38;;;;;;;4.90;3.47;;;25.20;74.60;;;;;;5010523;28;20473;-75
2022/09/04 11:54:35;;;;;;;6.20;4.60;;;25.20;75.10;;;;;;5048664;28;20434;-76
2022/09/04 11:57:14;;;;;;;4.63;4.17;;;25.30;74.40;;;;;;5050294;28;20484;-75
2022/09/04 12:00:06;;;;;;;4.23;3.83;;;25.30;74.30;;;;;;5048687;28;20519;-77
2022/09/04 12:03:17;;;;;;;4.27;3.80;;;25.40;74.30;;;;;;5048547;28;20516;-76
2022/09/04 12:06:08;;;;;;;4.23;3.83;;;25.40;74.30;;;;;;5012073;28;20515;-75
2022/09/04 12:09:14;;;;;;;5.40;3.27;;;25.50;74.00;;;;;;5049952;28;20514;-76
2022/09/04 12:12:21;;;;;;;3.53;3.23;;;25.50;73.40;;;;;;5032275;28;20564;-76
2022/09/04 12:15:21;;;;;;;6.30;3.03;;;25.50;73.40;;;;;;5050153;28;20826;-76
2022/09/04 12:18:32;;;;;;;3.67;3.37;;;25.60;73.20;;;;;;5049571;28;20430;-76
2022/09/04 12:21:47;;;;;;;4.97;4.50;;;25.60;72.90;;;;;;5044201;28;20474;-75
2022/09/04 12:25:03;;;;;;;5.53;3.60;;;25.60;72.90;;;;;;5037759;28;20529;-76
2022/09/04 12:28:07;;;;;;;4.30;3.90;;;25.70;72.80;;;;;;5001330;28;20471;-75
2022/09/04 12:30:54;;;;;;;4.27;3.60;;;25.70;72.60;;;;;;5036459;28;20490;-76
2022/09/04 12:33:52;;;;;;;4.00;3.57;;;25.80;72.80;;;;;;5036572;28;20454;-76
2022/09/04 12:36:51;;;;;;;4.20;3.37;;;25.80;72.50;;;;;;5026273;28;20481;-76
2022/09/04 12:39:41;;;;;;;6.93;3.97;;;25.90;72.30;;;;;;5036409;28;20532;-75
2022/09/04 12:42:16;;;;;;;6.37;3.57;;;25.90;71.80;;;;;;5036022;28;20861;-75
2022/09/04 12:44:58;;;;;;;3.60;3.27;;;25.90;71.50;;;;;;5035955;28;20443;-76
2022/09/04 12:47:40;;;;;;;4.77;3.60;;;25.90;71.10;;;;;;5037532;28;20423;-76
2022/09/04 12:50:26;;;;;;;3.93;3.60;;;25.90;71.20;;;;;;5036811;28;20462;-76
2022/09/04 12:53:11;;;;;;;3.97;3.57;;;25.90;71.10;;;;;;5036519;28;20813;-76
2022/09/04 12:55:52;;;;;;;3.63;3.33;;;25.90;71.00;;;;;;5034809;28;20533;-76
2022/09/04 12:58:33;;;;;;;4.30;3.33;;;25.90;71.00;;;;;;5034405;28;20459;-76
2022/09/04 13:01:12;;;;;;;4.13;3.47;;;25.90;71.80;;;;;;5034204;28;21058;-76
2022/09/04 13:03:53;;;;;;;5.30;3.63;;;26.00;71.40;;;;;;5035976;28;20813;-76
2022/09/04 13:06:35;;;;;;;4.80;3.57;;;26.00;71.20;;;;;;5035640;28;20969;-76
2022/09/04 13:09:17;;;;;;;5.93;4.03;;;26.10;71.40;;;;;;5035295;28;20930;-76
2022/09/04 13:11:58;;;;;;;3.83;3.40;;;26.10;71.50;;;;;;5033999;28;20442;-77
2022/09/04 13:14:56;;;;;;;3.83;3.43;;;26.10;71.40;;;;;;5034001;28;20443;-76
2022/09/04 13:17:33;;;;;;;3.73;3.30;;;26.20;71.40;;;;;;5034070;28;20514;-77
2022/09/04 13:20:11;;;;;;;5.03;3.80;;;26.20;71.30;;;;;;5035615;28;20857;-76
2022/09/04 13:23:03;;;;;;;4.30;3.90;;;26.30;71.20;;;;;;5034063;28;20854;-76
2022/09/04 13:25:41;;;;;;;4.70;4.30;;;26.30;71.00;;;;;;5035086;28;20471;-75
2022/09/04 13:28:22;;;;;;;5.20;4.30;;;26.30;71.00;;;;;;5033917;28;20450;-75
2022/09/04 13:30:59;;;;;;;3.90;3.50;;;26.30;70.80;;;;;;5033808;28;20475;-75
2022/09/04 13:33:43;;;;;;;3.90;3.50;;;26.40;70.60;;;;;;5035155;28;20455;-76
2022/09/04 13:36:28;;;;;;;4.77;3.03;;;26.30;70.40;;;;;;5032673;28;20577;-75
2022/09/04 13:39:19;;;;;;;4.77;3.53;;;26.30;70.20;;;;;;5033678;28;20470;-76
2022/09/04 13:42:20;;;;;;;4.50;3.60;;;26.30;70.20;;;;;;5034826;28;20515;-76
2022/09/04 13:44:58;;;;;;;4.00;3.60;;;26.40;70.50;;;;;;5033500;28;20462;-76
2022/09/04 13:47:35;;;;;;;3.80;2.67;;;26.40;70.80;;;;;;5033368;28;20506;-76
2022/09/04 13:50:12;;;;;;;6.60;6.00;;;26.50;70.80;;;;;;5034549;28;21027;-75
2022/09/04 13:52:45;;;;;;;6.93;4.93;;;26.50;70.80;;;;;;5035058;28;20830;-76
2022/09/04 13:55:18;;;;;;;3.90;3.40;;;26.60;70.70;;;;;;5033315;28;20447;-76
2022/09/04 13:57:56;;;;;;;6.03;3.57;;;26.70;70.80;;;;;;5033164;28;20443;-76
2022/09/04 14:00:26;;;;;;;5.23;3.20;;;26.70;70.70;;;;;;5033285;28;20489;-76
2022/09/04 14:03:00;;;;;;;3.73;3.40;;;26.70;71.30;;;;;;5034898;28;20457;-76
2022/09/04 14:05:33;;;;;;;3.50;2.93;;;26.70;70.70;;;;;;5034031;28;20439;-76
2022/09/04 14:08:05;;;;;;;5.37;3.00;;;26.70;70.40;;;;;;5033089;28;20479;-76
2022/09/04 14:10:54;;;;;;;3.50;3.20;;;26.70;70.20;;;;;;5033037;28;20466;-77
2022/09/04 14:13:40;;;;;;;3.23;2.90;;;26.70;70.00;;;;;;5032927;28;20471;-76
2022/09/04 14:16:13;;;;;;;4.23;3.83;;;26.70;69.60;;;;;;5032923;28;20446;-76
2022/09/04 14:19:19;;;;;;;3.43;3.13;;;26.60;69.70;;;;;;5032825;28;20449;-76
2022/09/04 14:22:06;;;;;;;4.00;3.50;;;26.60;69.50;;;;;;4993380;28;20454;-76
2022/09/04 14:24:41;;;;;;;4.07;3.13;;;26.60;69.70;;;;;;5032806;28;20522;-76
2022/09/04 14:27:21;;;;;;;5.80;3.27;;;26.70;69.70;;;;;;5034292;28;20458;-76
2022/09/04 14:30:01;;;;;;;7.23;6.10;;;26.70;69.60;;;;;;5034089;28;20462;-76
2022/09/04 14:32:39;;;;;;;8.90;8.10;;;26.70;69.60;;;;;;5033976;28;20420;-76
2022/09/04 14:35:16;;;;;;;5.27;3.60;;;26.70;70.50;;;;;;5032602;28;20435;-76
2022/09/04 14:38:03;;;;;;;4.37;3.97;;;26.80;70.20;;;;;;5034098;28;20473;-76
2022/09/04 14:40:34;;;;;;;4.80;3.97;;;26.80;70.20;;;;;;5033774;28;20969;-76
2022/09/04 14:43:12;;;;;;;3.73;3.33;;;26.80;70.00;;;;;;5032472;28;20961;-76
2022/09/04 14:46:05;;;;;;;4.53;3.40;;;26.80;69.90;;;;;;5033942;28;20498;-76
2022/09/04 14:48:39;;;;;;;6.90;3.40;;;26.80;70.00;;;;;;5032310;28;20435;-76
2022/09/04 14:51:16;;;;;;;4.13;3.20;;;26.80;69.90;;;;;;5034591;28;20454;-76
2022/09/04 14:53:54;;;;;;;5.10;3.63;;;26.80;69.80;;;;;;5033758;28;20450;-75